createdAt,value
2014-07-10T20:50:56.673Z,100516
2014-07-10T20:51:14.300Z,100516
2014-07-10T20:51:32.535Z,100520
2014-07-10T20:51:50.144Z,100528
2014-07-10T20:52:07.740Z,100529
2014-07-10T20:52:25.990Z,100517
2014-07-10T20:53:01.224Z,100512
2014-07-10T20:53:18.836Z,100521
2014-07-10T20:53:35.867Z,100521
2014-07-10T20:53:52.836Z,100533
2014-07-10T20:54:10.446Z,100524
2014-07-10T20:54:28.055Z,100521
2014-07-10T20:54:45.649Z,100524
2014-07-10T20:55:03.883Z,100518
2014-07-10T20:55:21.496Z,100524
2014-07-10T20:55:39.105Z,100521
2014-07-10T20:55:56.699Z,100521
2014-07-10T20:56:14.309Z,100521
2014-07-10T20:56:31.919Z,100518
2014-07-10T20:56:50.153Z,100530
2014-07-10T20:57:08.387Z,100527
2014-07-10T20:57:26.624Z,100518
2014-07-10T20:57:44.233Z,100521
2014-07-10T20:58:01.218Z,100524
2014-07-10T20:58:18.188Z,100533
2014-07-10T20:58:35.798Z,100530
2014-07-10T20:58:53.391Z,100524
2014-07-10T20:59:10.376Z,100518
2014-07-10T20:59:28.612Z,100521
2014-07-10T20:59:46.222Z,100524
2014-07-10T21:00:04.440Z,100530
2014-07-10T21:00:22.678Z,100530
2014-07-10T21:00:40.287Z,100521
2014-07-10T21:00:57.881Z,100515
2014-07-10T21:01:16.115Z,100524
2014-07-10T21:01:34.351Z,100521
2014-07-10T21:01:52.585Z,100527
2014-07-10T21:02:10.194Z,100521
2014-07-10T21:02:27.806Z,100527
2014-07-10T21:02:44.774Z,100521
2014-07-10T21:03:03.009Z,100527
2014-07-10T21:03:19.353Z,100524
2014-07-10T21:03:36.965Z,100530
2014-07-10T21:03:53.934Z,100524
2014-07-10T21:04:10.918Z,100533
2014-07-10T21:04:28.527Z,100524
2014-07-10T21:04:46.764Z,100524
2014-07-10T21:05:05.123Z,100521
2014-07-10T21:05:23.358Z,100521
2014-07-10T21:05:40.983Z,100524
2014-07-10T21:05:58.563Z,100527
2014-07-10T21:06:16.797Z,100524
2014-07-10T21:06:34.531Z,100521
2014-07-10T21:06:52.143Z,100521
2014-07-10T21:07:10.377Z,100524
2014-07-10T21:07:28.612Z,100521
2014-07-10T21:07:46.205Z,100527
2014-07-10T21:08:04.442Z,100521
2014-07-10T21:08:22.676Z,100521
2014-07-10T21:08:40.910Z,100524
2014-07-10T21:08:59.194Z,100530
2014-07-10T21:09:17.428Z,100524
2014-07-10T21:09:35.694Z,100524
2014-07-10T21:09:53.912Z,100515
2014-07-10T21:10:12.289Z,100515
2014-07-10T21:10:29.899Z,100527
2014-07-10T21:10:47.493Z,100515
2014-07-10T21:11:05.730Z,100524
2014-07-10T21:11:23.964Z,100521
2014-07-10T21:11:42.324Z,100518
2014-07-10T21:12:00.558Z,100518
2014-07-10T21:12:18.168Z,100524
2014-07-10T21:12:36.434Z,100512
2014-07-10T21:12:53.622Z,100527
2014-07-10T21:13:11.234Z,100529
2014-07-10T21:13:28.828Z,100524
2014-07-10T21:13:45.812Z,100521
2014-07-10T21:14:04.046Z,100521
2014-07-10T21:14:22.282Z,100524
2014-07-10T21:14:39.282Z,100524
2014-07-10T21:14:57.094Z,100527
2014-07-10T21:15:14.706Z,100518
2014-07-10T21:15:32.987Z,100527
2014-07-10T21:15:49.987Z,100524
2014-07-10T21:16:08.221Z,100518
2014-07-10T21:16:26.458Z,100521
2014-07-10T21:16:44.067Z,100524
2014-07-10T21:17:01.676Z,100521
2014-07-10T21:17:19.475Z,100524
2014-07-10T21:17:37.085Z,100532
2014-07-10T21:17:53.428Z,100518
2014-07-10T21:18:11.038Z,100521
2014-07-10T21:18:28.665Z,100524
2014-07-10T21:18:46.274Z,100521
2014-07-10T21:19:04.509Z,100521
2014-07-10T21:19:22.743Z,100521
2014-07-10T21:19:41.045Z,100530
2014-07-10T21:19:58.013Z,100530
2014-07-10T21:20:15.623Z,100530
2014-07-10T21:20:32.634Z,100527
2014-07-10T21:20:50.244Z,100524
2014-07-10T21:21:07.853Z,100521
2014-07-10T21:21:26.088Z,100521
2014-07-10T21:21:43.739Z,100530
2014-07-10T21:22:01.958Z,100524
2014-07-10T21:22:20.192Z,100518
2014-07-10T21:22:38.471Z,100530
2014-07-10T21:22:56.706Z,100527
2014-07-10T21:23:14.393Z,100529
2014-07-10T21:23:31.315Z,100524
2014-07-10T21:23:49.029Z,100527
2014-07-10T21:24:07.232Z,100530
2014-07-10T21:24:24.967Z,100532
2014-07-10T21:24:43.219Z,100530
2014-07-10T21:25:00.828Z,100529
2014-07-10T21:25:19.094Z,100521
2014-07-10T21:25:37.297Z,100527
2014-07-10T21:25:54.282Z,100532
2014-07-10T21:26:11.891Z,100532
2014-07-10T21:26:29.579Z,100529
2014-07-10T21:26:46.532Z,100541
2014-07-10T21:27:04.142Z,100535
2014-07-10T21:27:21.126Z,100535
2014-07-10T21:27:39.360Z,100532
2014-07-10T21:27:57.612Z,100538
2014-07-10T21:28:15.846Z,100535
2014-07-10T21:28:34.080Z,100538
2014-07-10T21:28:51.705Z,100544
2014-07-10T21:29:09.924Z,100547
2014-07-10T21:29:27.533Z,100553
2014-07-10T21:29:45.767Z,100544
2014-07-10T21:30:04.009Z,100544
2014-07-10T21:30:20.977Z,100547
2014-07-10T21:30:38.602Z,100561
2014-07-10T21:30:56.875Z,100558
2014-07-10T21:31:13.219Z,100556
2014-07-10T21:31:30.828Z,100567
2014-07-10T21:31:47.813Z,100556
2014-07-10T21:32:06.055Z,100573
2014-07-10T21:32:23.664Z,100567
2014-07-10T21:32:41.899Z,100570
2014-07-10T21:32:59.492Z,100576
2014-07-10T21:33:17.110Z,100573
2014-07-10T21:33:34.094Z,100576
2014-07-10T21:33:52.329Z,100589
2014-07-10T21:34:09.927Z,100592
2014-07-10T21:34:28.162Z,100582
2014-07-10T21:34:45.771Z,100592
2014-07-10T21:35:03.380Z,100592
2014-07-10T21:35:21.619Z,100595
2014-07-10T21:35:38.588Z,100595
2014-07-10T21:35:55.572Z,100590
2014-07-10T21:36:13.185Z,100601
2014-07-10T21:36:30.779Z,100604
2014-07-10T21:36:47.779Z,100607
2014-07-10T21:37:06.029Z,100598
2014-07-10T21:37:23.003Z,100598
2014-07-10T21:37:40.628Z,100607
2014-07-10T21:37:58.237Z,100592
2014-07-10T21:38:15.847Z,100582
2014-07-10T21:38:34.085Z,100590
2014-07-10T21:38:51.694Z,100592
2014-07-10T21:39:09.929Z,100598
2014-07-10T21:39:27.524Z,100595
2014-07-10T21:39:45.774Z,100595
2014-07-10T21:40:03.384Z,100590
2014-07-10T21:40:21.618Z,100590
2014-07-10T21:40:39.855Z,100573
2014-07-10T21:40:58.073Z,100570
2014-07-10T21:41:15.136Z,100561
2014-07-10T21:41:31.451Z,100553
2014-07-10T21:41:49.686Z,100553
2014-07-10T21:42:07.295Z,100553
2014-07-10T21:42:24.904Z,100556
2014-07-10T21:42:41.892Z,100547
2014-07-10T21:43:00.126Z,100544
2014-07-10T21:43:17.798Z,100544
2014-07-10T21:43:35.409Z,100544
2014-07-10T21:43:53.019Z,100544
2014-07-10T21:44:10.628Z,100553
2014-07-10T21:44:28.863Z,100550
2014-07-10T21:44:46.474Z,100556
2014-07-10T21:45:04.068Z,100556
2014-07-10T21:45:21.677Z,100550
2014-07-10T21:45:39.288Z,100550
2014-07-10T21:45:57.523Z,100547
2014-07-10T21:46:15.335Z,100550
2014-07-10T21:46:32.304Z,100547
2014-07-10T21:46:50.682Z,100559
2014-07-10T21:47:08.916Z,100556
2014-07-10T21:47:27.151Z,100558
2014-07-10T21:47:44.762Z,100556
2014-07-10T21:48:00.481Z,100547
2014-07-10T21:48:18.715Z,100547
2014-07-10T21:48:36.950Z,100547
2014-07-10T21:48:55.187Z,100550
2014-07-10T21:49:13.437Z,100544
2014-07-10T21:49:31.671Z,100556
2014-07-10T21:49:49.906Z,100550
2014-07-10T21:50:08.220Z,100550
2014-07-10T21:50:26.408Z,100550
2014-07-10T21:50:42.767Z,100541
2014-07-10T21:51:00.379Z,100544
2014-07-10T21:51:16.722Z,100541
2014-07-10T21:51:34.347Z,100541
2014-07-10T21:51:51.347Z,100544
2014-07-10T21:52:08.318Z,100538
2014-07-10T21:52:26.552Z,100544
2014-07-10T21:52:43.537Z,100544
2014-07-10T21:53:00.068Z,100532
2014-07-10T21:53:18.273Z,100538
2014-07-10T21:53:36.023Z,100541
2014-07-10T21:53:53.664Z,100544
2014-07-10T21:54:11.898Z,100544
2014-07-10T21:54:29.510Z,100547
2014-07-10T21:54:47.744Z,100544
2014-07-10T21:55:05.385Z,100535
2014-07-10T21:55:22.996Z,100541
2014-07-10T21:55:40.590Z,100547
2014-07-10T21:55:58.199Z,100538
2014-07-10T21:56:15.793Z,100538
2014-07-10T21:56:34.060Z,100544
2014-07-10T21:56:50.998Z,100538
2014-07-10T21:57:09.232Z,100547
2014-07-10T21:57:27.470Z,100532
2014-07-10T21:57:44.610Z,100541
2014-07-10T21:58:02.860Z,100547
2014-07-10T21:58:20.454Z,100550
2014-07-10T21:58:38.689Z,100541
2014-07-10T21:58:55.658Z,100552
2014-07-10T21:59:13.268Z,100550
2014-07-10T21:59:31.505Z,100547
